Time;durP1;ratioP1;P1;durP2;ratioP2;P2;SDS_P1;SDS_P2;PMS_P1;PMS_P2;Temp;Humidity;BMP_temperature;BMP_pressure;BME280_temperature;BME280_humidity;BME280_pressure;Samples;Min_cycle;Max_cycle;Signal;HPM_P1;HPM_P2
2024/04/12 00:01:16;;;;;;;5.90;2.75;;;9.50;99.90;;;;;;5492770;26;20006;-78
2024/04/12 00:03:47;;;;;;;5.80;3.47;;;9.50;99.90;;;;;;5489458;26;20005;-75
2024/04/12 00:06:17;;;;;;;5.75;2.85;;;9.50;99.90;;;;;;5488559;26;20002;-76
2024/04/12 00:08:46;;;;;;;2.75;2.25;;;9.50;99.90;;;;;;5488639;26;20022;-75
2024/04/12 00:11:13;;;;;;;3.20;2.80;;;9.40;99.90;;;;;;5490010;26;20450;-77
2024/04/12 00:13:41;;;;;;;5.05;3.00;;;9.30;99.90;;;;;;5489435;26;20002;-76
2024/04/12 00:16:10;;;;;;;4.30;2.67;;;9.30;99.90;;;;;;5490669;26;20448;-75
2024/04/12 00:18:37;;;;;;;4.63;2.95;;;9.30;99.90;;;;;;5492235;26;20405;-75
2024/04/12 00:21:07;;;;;;;4.10;3.17;;;9.20;99.90;;;;;;5489604;26;20010;-75
2024/04/12 00:23:38;;;;;;;4.80;3.33;;;9.20;99.90;;;;;;5453664;26;19999;-75
2024/04/12 00:26:04;;;;;;;3.92;2.60;;;9.20;99.90;;;;;;5451888;26;20006;-75
2024/04/12 00:28:30;;;;;;;3.53;2.78;;;9.10;99.90;;;;;;5454766;26;19995;-74
2024/04/12 00:31:06;;;;;;;5.13;2.60;;;9.20;99.90;;;;;;5453641;26;19995;-74
2024/04/12 00:33:34;;;;;;;12.48;3.38;;;9.20;99.90;;;;;;5453421;26;20006;-75
2024/04/12 00:36:12;;;;;;;5.03;3.08;;;9.30;99.90;;;;;;5449927;26;20002;-76
2024/04/12 00:38:41;;;;;;;5.35;3.28;;;9.20;99.90;;;;;;5455027;26;20068;-75
2024/04/12 00:41:14;;;;;;;5.07;2.78;;;9.10;99.90;;;;;;5453053;26;20060;-75
2024/04/12 00:43:47;;;;;;;5.43;2.88;;;9.10;99.90;;;;;;5452208;26;19990;-75
2024/04/12 00:46:25;;;;;;;4.13;3.00;;;9.10;99.90;;;;;;5455327;26;20014;-76
2024/04/12 00:48:52;;;;;;;5.00;2.85;;;9.00;99.90;;;;;;5455392;26;20453;-75
2024/04/12 00:51:19;;;;;;;4.25;3.20;;;8.90;99.90;;;;;;5453161;26;19995;-76
2024/04/12 00:53:46;;;;;;;3.33;3.03;;;8.90;99.90;;;;;;5452712;26;19990;-75
2024/04/12 00:56:16;;;;;;;5.93;3.45;;;9.00;99.90;;;;;;5454883;26;19995;-76
2024/04/12 00:58:47;;;;;;;4.57;2.35;;;9.00;99.90;;;;;;5455151;26;20444;-75
2024/04/12 01:01:17;;;;;;;8.15;3.17;;;9.00;99.90;;;;;;5453269;26;20010;-75
2024/04/12 01:03:47;;;;;;;4.57;3.00;;;9.10;99.90;;;;;;5452628;26;20003;-77
2024/04/12 01:06:29;;;;;;;3.78;2.75;;;9.00;99.90;;;;;;5452855;26;20351;-76
2024/04/12 01:08:58;;;;;;;4.45;2.90;;;8.90;99.90;;;;;;5454766;26;19999;-76
2024/04/12 01:11:27;;;;;;;3.03;2.75;;;8.80;99.90;;;;;;5451405;26;19999;-77
2024/04/12 01:13:53;;;;;;;3.83;3.00;;;8.70;99.90;;;;;;5452584;26;20452;-76
2024/04/12 01:16:21;;;;;;;3.47;2.30;;;8.70;99.90;;;;;;5453480;26;19995;-75
2024/04/12 01:18:47;;;;;;;4.80;2.45;;;8.70;99.90;;;;;;5452162;26;20407;-76
2024/04/12 01:21:13;;;;;;;3.58;2.58;;;8.70;99.90;;;;;;5454623;26;20010;-77
2024/04/12 01:23:43;;;;;;;3.65;2.47;;;8.70;99.90;;;;;;5453920;26;20003;-75
2024/04/12 01:26:13;;;;;;;6.40;2.90;;;8.70;99.90;;;;;;5455171;26;19998;-74
2024/04/12 01:28:43;;;;;;;3.90;2.80;;;8.70;99.90;;;;;;5453147;26;19994;-76
2024/04/12 01:31:15;;;;;;;3.88;3.15;;;8.70;99.90;;;;;;5452017;26;19995;-74
2024/04/12 01:33:50;;;;;;;3.35;3.03;;;8.70;99.90;;;;;;5453818;26;20002;-76
2024/04/12 01:36:21;;;;;;;4.25;3.15;;;8.70;99.90;;;;;;5453751;26;19999;-76
2024/04/12 01:38:57;;;;;;;3.95;3.05;;;8.70;99.90;;;;;;5451683;26;20003;-75
2024/04/12 01:41:31;;;;;;;4.07;2.22;;;8.60;99.90;;;;;;5454801;26;20045;-76
2024/04/12 01:44:06;;;;;;;2.67;2.30;;;8.60;99.90;;;;;;5451191;26;20005;-77
2024/04/12 01:46:39;;;;;;;4.88;3.10;;;8.60;99.90;;;;;;5451285;26;20452;-76
2024/04/12 01:49:10;;;;;;;5.00;2.97;;;8.70;99.90;;;;;;5452761;26;20009;-76
2024/04/12 01:51:40;;;;;;;13.82;3.50;;;8.60;99.90;;;;;;5454217;26;19999;-75
2024/04/12 01:54:16;;;;;;;6.75;3.28;;;8.60;99.90;;;;;;5454663;26;19994;-75
2024/04/12 01:56:47;;;;;;;4.05;2.63;;;8.50;99.90;;;;;;5452860;26;20002;-75
2024/04/12 01:59:21;;;;;;;4.78;3.08;;;8.50;99.90;;;;;;5451202;26;20472;-77
2024/04/12 02:01:48;;;;;;;7.47;3.22;;;8.50;99.90;;;;;;5452973;26;19995;-74
2024/04/12 02:04:21;;;;;;;3.28;2.97;;;8.50;99.90;;;;;;5450067;26;20003;-74
2024/04/12 02:06:48;;;;;;;3.40;3.00;;;8.50;99.90;;;;;;5452375;26;19991;-75
2024/04/12 02:09:14;;;;;;;3.67;3.38;;;8.60;99.90;;;;;;5450185;26;20523;-76
2024/04/12 02:11:46;;;;;;;5.30;3.25;;;8.50;99.90;;;;;;5452110;26;20003;-75
2024/04/12 02:14:13;;;;;;;4.18;2.83;;;8.40;99.90;;;;;;5453299;26;19999;-76
2024/04/12 02:16:41;;;;;;;3.78;3.15;;;8.40;99.90;;;;;;5455716;26;20003;-75
2024/04/12 02:19:10;;;;;;;5.10;3.10;;;8.40;99.90;;;;;;5455610;26;19999;-76
2024/04/12 02:21:38;;;;;;;4.43;3.28;;;8.40;99.90;;;;;;5456146;26;20019;-75
2024/04/12 02:24:05;;;;;;;5.50;3.38;;;8.40;99.90;;;;;;5455552;26;20002;-77
2024/04/12 02:26:32;;;;;;;3.92;2.60;;;8.40;99.90;;;;;;5454510;26;20009;-77
2024/04/12 02:29:01;;;;;;;3.38;2.97;;;8.40;99.90;;;;;;5455588;26;20048;-76
2024/04/12 02:31:27;;;;;;;5.20;3.30;;;8.40;99.90;;;;;;5455015;26;20003;-75
2024/04/12 02:33:54;;;;;;;6.97;3.10;;;8.40;99.90;;;;;;5452828;26;19999;-76
2024/04/12 02:36:21;;;;;;;3.75;3.10;;;8.40;99.90;;;;;;5453642;26;20345;-77
2024/04/12 02:38:50;;;;;;;3.35;2.65;;;8.40;99.90;;;;;;5454976;26;20009;-76
2024/04/12 02:41:16;;;;;;;3.00;2.55;;;8.40;99.90;;;;;;5456164;26;20110;-77
2024/04/12 02:43:51;;;;;;;4.15;3.15;;;8.30;99.90;;;;;;5456824;26;20071;-76
2024/04/12 02:46:20;;;;;;;3.53;2.93;;;8.10;99.90;;;;;;5457028;26;19995;-77
2024/04/12 02:48:49;;;;;;;5.32;3.72;;;8.10;99.90;;;;;;5454748;26;20002;-75
2024/04/12 02:51:20;;;;;;;4.10;3.53;;;8.00;99.90;;;;;;5459901;26;19998;-76
2024/04/12 02:53:48;;;;;;;7.10;3.30;;;8.20;99.90;;;;;;5458699;26;19994;-76
2024/04/12 02:56:15;;;;;;;4.82;3.30;;;8.20;99.90;;;;;;5462644;26;19995;-79
2024/04/12 02:58:45;;;;;;;3.75;2.50;;;8.00;99.90;;;;;;5463444;26;20048;-77
2024/04/12 03:01:16;;;;;;;3.85;2.90;;;8.00;99.90;;;;;;5467155;26;20007;-77
2024/04/12 03:03:46;;;;;;;3.70;3.20;;;8.00;99.90;;;;;;5465830;26;20026;-78
2024/04/12 03:06:22;;;;;;;4.70;3.05;;;8.00;99.90;;;;;;5467287;26;20019;-76
2024/04/12 03:08:50;;;;;;;4.57;3.30;;;8.00;99.90;;;;;;5467175;26;20687;-77
2024/04/12 03:11:21;;;;;;;4.95;3.00;;;7.90;99.90;;;;;;5466834;26;19995;-78
2024/04/12 03:14:03;;;;;;;3.38;2.63;;;7.90;99.90;;;;;;5466296;26;19999;-77
2024/04/12 03:16:30;;;;;;;3.55;3.08;;;7.90;99.90;;;;;;5468879;26;20007;-76
2024/04/12 03:18:57;;;;;;;5.60;3.33;;;7.90;99.90;;;;;;5470687;26;20017;-80
2024/04/12 03:21:26;;;;;;;4.28;3.30;;;7.90;99.90;;;;;;5473457;26;20010;-79
2024/04/12 03:23:52;;;;;;;4.63;3.53;;;8.00;99.90;;;;;;5491886;26;20022;-77
2024/04/12 03:26:21;;;;;;;3.97;3.05;;;8.00;99.90;;;;;;5488335;26;20009;-77
2024/04/12 03:28:49;;;;;;;3.03;2.53;;;7.90;99.90;;;;;;5511755;26;19998;-75
2024/04/12 03:31:17;;;;;;;5.28;3.03;;;7.90;99.90;;;;;;5512692;26;20014;-77
2024/04/12 03:33:43;;;;;;;3.80;3.33;;;7.80;99.90;;;;;;5511540;26;20009;-76
2024/04/12 03:36:26;;;;;;;3.70;3.10;;;7.80;99.90;;;;;;5511381;26;20004;-77
2024/04/12 03:41:50;;;;;;;6.45;3.85;;;7.90;99.90;;;;;;5505119;26;20520;-77
2024/04/12 03:44:20;;;;;;;9.65;5.72;;;7.70;99.90;;;;;;5498384;26;20075;-77
2024/04/12 03:46:50;;;;;;;8.27;4.32;;;7.60;99.90;;;;;;5456797;26;20333;-77
2024/04/12 03:49:20;;;;;;;7.88;4.35;;;7.60;99.90;;;;;;5457544;26;20064;-77
2024/04/12 03:51:48;;;;;;;5.15;2.92;;;7.50;99.90;;;;;;5454915;26;19998;-75
2024/04/12 03:54:18;;;;;;;11.65;4.47;;;7.50;99.90;;;;;;5462303;26;20017;-77
2024/04/12 03:56:49;;;;;;;5.15;4.03;;;7.50;99.90;;;;;;5456249;26;19999;-75
2024/04/12 03:59:18;;;;;;;5.38;3.45;;;7.50;99.90;;;;;;5454787;26;19991;-76
2024/04/12 04:01:45;;;;;;;6.38;3.45;;;7.60;99.90;;;;;;5452868;26;20447;-77
2024/04/12 04:04:18;;;;;;;5.70;3.85;;;7.60;99.90;;;;;;5451152;26;20010;-77
2024/04/12 04:06:54;;;;;;;6.97;3.63;;;7.60;99.90;;;;;;5474900;26;20488;-75
2024/04/12 04:09:22;;;;;;;3.55;2.83;;;7.60;99.90;;;;;;5489536;26;20009;-77
2024/04/12 04:11:54;;;;;;;5.45;3.90;;;7.60;99.90;;;;;;5490116;26;19998;-75
2024/04/12 04:14:27;;;;;;;6.50;4.63;;;7.60;99.90;;;;;;5489806;26;20056;-77
2024/04/12 04:16:55;;;;;;;6.00;3.30;;;7.60;99.90;;;;;;5492442;26;19998;-76
2024/04/12 04:19:33;;;;;;;4.63;3.42;;;7.60;99.90;;;;;;5490481;26;20010;-75
2024/04/12 04:22:21;;;;;;;3.97;3.15;;;7.50;99.90;;;;;;5488794;26;19990;-75
2024/04/12 04:24:48;;;;;;;6.63;4.68;;;7.70;99.90;;;;;;5490704;26;20041;-78
2024/04/12 04:27:15;;;;;;;4.55;3.53;;;7.60;99.90;;;;;;5490683;26;20370;-76
2024/04/12 04:29:44;;;;;;;3.75;3.30;;;7.60;99.90;;;;;;5488234;26;20521;-76
2024/04/12 04:32:10;;;;;;;4.88;3.70;;;7.60;99.90;;;;;;5489024;26;20530;-76
2024/04/12 04:34:36;;;;;;;9.57;5.43;;;7.60;99.90;;;;;;5486785;26;20001;-74
2024/04/12 04:37:05;;;;;;;5.78;4.35;;;7.50;99.90;;;;;;5486999;26;19998;-76
2024/04/12 04:39:32;;;;;;;4.80;4.28;;;7.50;99.90;;;;;;5487172;26;19998;-76
2024/04/12 04:41:59;;;;;;;5.90;3.40;;;7.60;99.90;;;;;;5486950;26;20005;-76
2024/04/12 04:44:25;;;;;;;7.00;3.72;;;7.60;99.90;;;;;;5486329;26;19997;-76
2024/04/12 04:46:52;;;;;;;5.28;3.03;;;7.60;99.90;;;;;;5487578;26;20018;-77
2024/04/12 04:49:19;;;;;;;5.32;4.03;;;7.70;99.90;;;;;;5488105;26;20448;-76
2024/04/12 04:51:46;;;;;;;4.60;3.33;;;7.70;99.90;;;;;;5490002;26;20070;-77
2024/04/12 04:54:14;;;;;;;6.70;3.60;;;7.80;99.90;;;;;;5488037;26;20445;-76
2024/04/12 04:56:41;;;;;;;7.95;3.45;;;7.90;99.90;;;;;;5479037;26;19999;-75
2024/04/12 04:59:17;;;;;;;8.88;4.93;;;7.90;99.90;;;;;;5462392;26;20007;-76
2024/04/12 05:01:48;;;;;;;12.75;4.68;;;10.40;99.90;;;;;;5464638;26;20465;-77
2024/04/12 05:04:18;;;;;;;5.90;4.47;;;10.20;99.90;;;;;;5449280;26;20003;-76
2024/04/12 05:06:53;;;;;;;12.95;6.00;;;11.10;99.90;;;;;;5453195;26;20009;-76
2024/04/12 05:09:19;;;;;;;5.47;3.88;;;12.40;99.90;;;;;;5459762;26;20002;-77
2024/04/12 05:11:46;;;;;;;7.95;4.38;;;12.80;99.90;;;;;;5460417;26;20083;-76
2024/04/12 05:14:41;;;;;;;5.68;3.67;;;12.20;99.90;;;;;;5471526;26;20018;-77
2024/04/12 05:17:03;;;;;;;4.68;3.63;;;13.10;99.00;;;;;;5481189;26;20001;-77
2024/04/12 05:19:31;;;;;;;4.88;3.67;;;12.90;99.00;;;;;;5490785;26;19994;-77
2024/04/12 05:21:59;;;;;;;6.88;3.92;;;12.90;97.80;;;;;;5488369;26;19998;-77
2024/04/12 05:24:25;;;;;;;7.35;4.22;;;12.60;99.20;;;;;;5491481;26;19990;-77
2024/04/12 05:27:01;;;;;;;7.55;3.88;;;12.70;98.30;;;;;;5490842;26;20349;-77
2024/04/12 05:29:28;;;;;;;;;;;12.20;98.90;;;;;;5490297;26;20026;-78
2024/04/12 05:31:56;;;;;;;4.85;2.97;;;11.80;99.90;;;;;;5489673;26;19931;-75
2024/04/12 05:34:22;;;;;;;5.65;3.40;;;11.70;99.90;;;;;;5488806;26;19997;-78
2024/04/12 05:36:48;;;;;;;8.80;3.63;;;12.10;99.90;;;;;;5491752;26;20437;-77
2024/04/12 05:39:19;;;;;;;7.32;3.63;;;11.50;99.90;;;;;;5460252;26;20081;-77
2024/04/12 05:41:45;;;;;;;5.80;4.10;;;12.20;99.90;;;;;;5452364;26;20100;-77
2024/04/12 05:44:18;;;;;;;5.93;4.20;;;12.50;99.90;;;;;;5453236;26;20021;-76
2024/04/12 05:46:45;;;;;;;11.30;4.00;;;12.50;99.90;;;;;;5451664;26;20350;-76
2024/04/12 05:49:14;;;;;;;6.50;3.30;;;12.10;99.90;;;;;;5483377;26;19995;-77
2024/04/12 05:51:40;;;;;;;5.70;2.85;;;12.20;99.90;;;;;;5468402;26;20010;-78
2024/04/12 05:54:16;;;;;;;5.03;3.00;;;12.00;99.90;;;;;;5480904;26;19990;-77
2024/04/12 05:56:46;;;;;;;10.65;4.97;;;12.10;99.90;;;;;;5487355;26;20001;-77
2024/04/12 05:59:16;;;;;;;11.63;5.95;;;12.50;99.90;;;;;;5478350;26;20365;-78
2024/04/12 06:01:46;;;;;;;6.07;4.47;;;12.60;99.90;;;;;;5453717;26;19995;-77
2024/04/12 06:04:19;;;;;;;9.07;4.90;;;12.80;99.90;;;;;;5452651;26;19991;-77
2024/04/12 06:06:49;;;;;;;5.50;3.58;;;12.60;99.90;;;;;;5473795;26;20022;-76
2024/04/12 06:09:22;;;;;;;14.23;3.65;;;12.60;99.90;;;;;;5463818;26;20075;-77
2024/04/12 06:11:47;;;;;;;6.15;4.25;;;12.80;99.90;;;;;;5473753;26;20351;-77
2024/04/12 06:14:13;;;;;;;5.82;3.72;;;13.00;99.90;;;;;;5485626;26;19990;-77
2024/04/12 06:16:40;;;;;;;6.10;3.25;;;12.50;99.90;;;;;;5451276;26;19991;-76
2024/04/12 06:19:05;;;;;;;5.15;3.60;;;12.20;99.90;;;;;;5450650;26;20002;-77
2024/04/12 06:21:32;;;;;;;12.82;3.53;;;12.00;99.90;;;;;;5453422;26;19995;-77
2024/04/12 06:23:58;;;;;;;6.53;3.10;;;11.90;99.90;;;;;;5451148;26;20003;-76
2024/04/12 06:26:23;;;;;;;3.83;3.22;;;11.80;99.90;;;;;;5457161;26;20107;-77
2024/04/12 06:28:49;;;;;;;3.67;3.08;;;11.70;99.90;;;;;;5470592;26;20005;-77
2024/04/12 06:31:20;;;;;;;4.53;3.17;;;11.80;99.90;;;;;;5490656;26;19990;-76
2024/04/12 06:33:50;;;;;;;5.22;2.97;;;11.90;99.90;;;;;;5454070;26;19999;-77
2024/04/12 06:36:16;;;;;;;10.48;3.63;;;11.90;99.90;;;;;;5461839;26;19998;-78
2024/04/12 06:38:42;;;;;;;5.45;3.92;;;12.00;99.90;;;;;;5484705;26;20006;-78
2024/04/12 06:41:10;;;;;;;5.30;3.60;;;12.20;99.90;;;;;;5479640;26;20333;-78
2024/04/12 06:43:37;;;;;;;11.40;3.25;;;12.40;99.90;;;;;;5478031;26;19998;-78
2024/04/12 06:46:11;;;;;;;5.88;3.38;;;12.50;99.90;;;;;;5483465;26;19999;-77
2024/04/12 06:48:40;;;;;;;5.68;3.28;;;12.60;99.90;;;;;;5461482;26;19997;-77
2024/04/12 06:51:11;;;;;;;6.43;3.42;;;12.70;99.90;;;;;;5467341;26;20003;-78
2024/04/12 06:53:44;;;;;;;5.22;3.13;;;12.80;99.90;;;;;;5453240;26;20014;-77
2024/04/12 06:56:15;;;;;;;5.05;3.50;;;12.90;99.90;;;;;;5457004;26;20044;-77
2024/04/12 06:58:46;;;;;;;5.57;3.40;;;13.00;99.90;;;;;;5454369;26;20079;-76
2024/04/12 07:01:12;;;;;;;10.20;3.17;;;13.20;99.90;;;;;;5454332;26;20071;-78
2024/04/12 07:03:45;;;;;;;6.47;2.97;;;13.40;99.90;;;;;;5456709;26;20067;-78
2024/04/12 07:06:14;;;;;;;5.82;3.25;;;13.50;99.90;;;;;;5469453;26;19990;-77
2024/04/12 07:08:49;;;;;;;4.22;2.97;;;13.70;99.90;;;;;;5458248;26;20044;-77
2024/04/12 07:11:24;;;;;;;3.80;2.70;;;13.70;99.90;;;;;;5452328;26;20035;-77
2024/04/12 07:13:50;;;;;;;8.70;4.40;;;14.60;99.90;;;;;;5471122;26;20635;-76
2024/04/12 07:16:20;;;;;;;2.65;2.45;;;14.60;98.70;;;;;;5483236;26;20030;-77
2024/04/12 07:18:46;;;;;;;8.10;2.63;;;14.60;98.50;;;;;;5489805;26;20001;-75
2024/04/12 07:21:15;;;;;;;3.15;2.85;;;14.70;97.70;;;;;;5489150;26;20032;-75
2024/04/12 07:23:51;;;;;;;4.53;3.08;;;14.80;97.20;;;;;;5490427;26;20356;-77
2024/04/12 07:26:24;;;;;;;3.22;2.92;;;14.80;97.20;;;;;;5490219;26;19998;-77
2024/04/12 07:28:57;;;;;;;4.13;3.00;;;14.90;97.40;;;;;;5488829;26;20345;-76
2024/04/12 07:31:24;;;;;;;8.85;2.80;;;15.00;97.60;;;;;;5488606;26;20001;-77
2024/04/12 07:33:51;;;;;;;6.25;2.92;;;15.10;96.40;;;;;;5487370;26;20414;-77
2024/04/12 07:36:19;;;;;;;3.20;2.90;;;15.20;96.00;;;;;;5486808;26;19990;-77
2024/04/12 07:38:49;;;;;;;10.85;3.13;;;15.40;96.30;;;;;;5495629;26;19994;-77
2024/04/12 07:41:15;;;;;;;10.32;4.72;;;15.60;96.00;;;;;;5496075;26;20013;-76
2024/04/12 07:43:43;;;;;;;5.45;3.30;;;15.80;95.60;;;;;;5495749;26;20005;-78
2024/04/12 07:46:15;;;;;;;4.93;2.45;;;16.10;93.90;;;;;;5485220;26;19990;-78
2024/04/12 07:48:48;;;;;;;6.72;3.05;;;16.40;92.90;;;;;;5481363;26;19993;-77
2024/04/12 07:51:20;;;;;;;3.28;2.45;;;16.70;92.00;;;;;;5472223;26;20002;-78
2024/04/12 07:53:47;;;;;;;5.18;2.95;;;17.00;91.80;;;;;;5473699;26;20322;-77
2024/04/12 07:56:16;;;;;;;8.43;3.00;;;17.30;90.00;;;;;;5456462;26;20002;-76
2024/04/12 07:58:43;;;;;;;5.88;2.75;;;17.50;90.00;;;;;;5478266;26;20009;-77
2024/04/12 08:01:16;;;;;;;4.13;2.50;;;17.60;88.90;;;;;;5493244;26;20512;-78
2024/04/12 08:03:42;;;;;;;5.78;3.15;;;17.70;86.70;;;;;;5495357;26;20010;-77
2024/04/12 08:06:36;;;;;;;5.90;2.63;;;17.90;86.20;;;;;;5492219;26;20083;-76
2024/04/12 08:09:06;;;;;;;7.82;2.92;;;18.00;84.10;;;;;;5479480;26;20005;-77
2024/04/12 08:11:35;;;;;;;5.00;2.63;;;18.10;81.60;;;;;;5469177;26;20405;-78
2024/04/12 08:14:05;;;;;;;9.10;3.08;;;18.10;80.90;;;;;;5476988;26;19998;-77
2024/04/12 08:16:46;;;;;;;5.60;2.50;;;18.20;81.20;;;;;;5474888;26;19999;-77
2024/04/12 08:19:21;;;;;;;4.75;2.33;;;18.40;82.20;;;;;;5451972;26;20003;-78
2024/04/12 08:21:48;;;;;;;10.23;2.42;;;18.50;78.40;;;;;;5453359;26;19999;-77
2024/04/12 08:24:33;;;;;;;5.68;1.70;;;18.70;81.70;;;;;;5454114;26;20456;-77
2024/04/12 08:27:02;;;;;;;2.80;2.10;;;18.80;78.80;;;;;;5455119;26;19999;-77
2024/04/12 08:29:27;;;;;;;4.13;1.90;;;19.00;78.00;;;;;;5455023;26;20410;-75
2024/04/12 08:34:36;;;;;;;3.40;2.05;;;19.20;71.20;;;;;;5452812;26;20006;-75
2024/04/12 08:37:12;;;;;;;4.00;1.85;;;19.20;71.80;;;;;;5453908;26;19999;-76
2024/04/12 08:39:53;;;;;;;5.00;1.83;;;19.10;70.50;;;;;;5453271;26;20011;-74
2024/04/12 08:42:19;;;;;;;1.70;1.60;;;19.20;70.50;;;;;;5453743;26;20449;-77
2024/04/12 08:44:46;;;;;;;5.75;2.38;;;19.00;65.70;;;;;;5452633;26;20006;-76
2024/04/12 08:47:16;;;;;;;3.55;1.83;;;19.10;67.40;;;;;;5452725;26;19994;-75
2024/04/12 08:49:48;;;;;;;4.13;2.03;;;19.20;69.10;;;;;;5464725;26;19995;-77
2024/04/12 08:52:30;;;;;;;4.63;2.30;;;19.40;66.40;;;;;;5478160;26;20459;-76
2024/04/12 08:54:59;;;;;;;5.00;2.03;;;19.40;66.50;;;;;;5469962;26;19994;-77
2024/04/12 08:57:33;;;;;;;3.00;1.58;;;19.20;64.50;;;;;;5450798;26;20009;-77
2024/04/12 08:59:59;;;;;;;2.78;1.92;;;19.30;66.90;;;;;;5450756;26;20431;-76
2024/04/12 09:02:30;;;;;;;2.78;1.60;;;19.80;67.20;;;;;;5453227;26;19994;-76
2024/04/12 09:04:57;;;;;;;3.15;1.92;;;19.00;62.90;;;;;;5452498;26;20009;-75
2024/04/12 09:07:24;;;;;;;4.72;2.30;;;19.00;63.90;;;;;;5452714;26;20044;-77
2024/04/12 09:09:53;;;;;;;3.67;1.80;;;19.00;64.40;;;;;;5453382;26;20014;-76
2024/04/12 09:12:24;;;;;;;6.15;1.80;;;19.00;65.50;;;;;;5477637;26;20456;-77
2024/04/12 09:14:54;;;;;;;1.95;1.70;;;19.20;65.20;;;;;;5470014;26;19998;-77
2024/04/12 09:17:27;;;;;;;3.78;1.27;;;19.30;62.50;;;;;;5451714;26;20010;-77
2024/04/12 09:19:53;;;;;;;4.05;1.73;;;19.10;62.70;;;;;;5453609;26;19995;-78
2024/04/12 09:22:21;;;;;;;1.77;1.58;;;19.20;64.70;;;;;;5466369;26;20049;-76
2024/04/12 09:24:48;;;;;;;1.60;1.50;;;19.50;63.90;;;;;;5473100;26;19998;-76
2024/04/12 09:27:22;;;;;;;7.32;1.80;;;19.60;61.90;;;;;;5488348;26;20001;-77
2024/04/12 09:29:59;;;;;;;1.30;1.23;;;19.60;64.30;;;;;;5486973;26;20001;-75
2024/04/12 09:35:12;;;;;;;1.85;1.30;;;20.20;63.20;;;;;;5487485;26;20072;-75
2024/04/12 09:37:53;;;;;;;4.43;1.92;;;20.30;64.80;;;;;;5488182;26;20432;-76
2024/04/12 09:40:28;;;;;;;3.33;2.10;;;20.50;62.20;;;;;;5486283;26;20004;-75
2024/04/12 09:45:45;;;;;;;3.33;1.40;;;20.70;63.00;;;;;;5486600;26;20080;-75
2024/04/12 10:38:54;;;;;;;1.58;1.17;;;20.70;59.50;;;;;;5489961;26;20037;-80
2024/04/12 10:41:22;;;;;;;4.63;2.28;;;21.00;55.60;;;;;;5480937;26;19991;-77
2024/04/12 10:43:47;;;;;;;2.85;1.33;;;21.00;55.50;;;;;;5454709;26;20005;-79
2024/04/12 10:46:13;;;;;;;1.20;1.10;;;21.20;57.00;;;;;;5465100;26;20492;-79
2024/04/12 10:48:42;;;;;;;1.63;1.20;;;21.40;57.10;;;;;;5455641;26;20469;-77
2024/04/12 10:51:08;;;;;;;3.75;1.83;;;21.60;57.10;;;;;;5458509;26;20526;-77
2024/04/12 10:53:39;;;;;;;4.18;2.10;;;21.60;54.50;;;;;;5475067;26;20015;-77
2024/04/12 10:56:18;;;;;;;4.63;1.38;;;21.60;55.40;;;;;;5455959;26;20037;-77
2024/04/12 10:58:56;;;;;;;3.03;1.42;;;21.60;54.80;;;;;;5484658;26;20371;-76
2024/04/12 11:01:23;;;;;;;1.90;1.63;;;21.80;56.10;;;;;;5484770;26;20005;-77
2024/04/12 11:03:56;;;;;;;2.03;1.60;;;22.00;55.60;;;;;;5448767;26;20014;-76
2024/04/12 11:06:32;;;;;;;1.88;1.33;;;21.90;52.60;;;;;;5448904;26;20009;-77
2024/04/12 11:08:59;;;;;;;1.75;1.65;;;21.80;52.90;;;;;;5456845;26;19998;-80
2024/04/12 11:11:33;;;;;;;3.30;1.50;;;21.90;53.60;;;;;;5453670;26;20031;-78
2024/04/12 11:14:00;;;;;;;6.60;1.65;;;21.90;54.60;;;;;;5451761;26;20442;-77
2024/04/12 11:33:02;;;;;;;6.35;1.63;;;22.20;53.40;;;;;;5475370;26;20030;-77
2024/04/12 11:35:28;;;;;;;4.53;1.80;;;22.50;54.50;;;;;;5484957;26;19994;-77
2024/04/12 11:37:55;;;;;;;5.10;1.50;;;22.60;51.90;;;;;;5484053;26;20009;-76
2024/04/12 11:40:21;;;;;;;8.23;1.52;;;22.70;51.60;;;;;;5454999;26;20006;-75
2024/04/12 11:42:47;;;;;;;4.95;1.23;;;22.60;52.10;;;;;;5466748;26;20433;-75
2024/04/12 11:45:17;;;;;;;3.58;1.55;;;22.70;51.50;;;;;;5473125;26;19990;-77
2024/04/12 11:47:44;;;;;;;2.03;1.40;;;22.80;51.20;;;;;;5456813;26;20352;-76
2024/04/12 11:50:10;;;;;;;1.63;1.52;;;22.50;49.80;;;;;;5484943;26;20005;-76
2024/04/12 11:52:42;;;;;;;2.85;1.20;;;22.30;51.10;;;;;;5461765;26;20445;-75
2024/04/12 11:55:08;;;;;;;3.53;1.60;;;22.40;51.40;;;;;;5463440;26;20030;-76
2024/04/12 11:57:37;;;;;;;11.50;1.55;;;22.50;51.20;;;;;;5454056;26;19999;-77
2024/04/12 12:00:09;;;;;;;1.95;1.52;;;22.50;52.20;;;;;;5452184;26;20002;-75
2024/04/12 12:02:36;;;;;;;1.73;1.20;;;22.50;50.40;;;;;;5453671;26;20002;-77
2024/04/12 12:05:04;;;;;;;5.57;1.17;;;22.50;52.40;;;;;;5451079;26;19999;-76
2024/04/12 12:07:30;;;;;;;18.45;2.97;;;22.70;51.30;;;;;;5466250;26;20007;-76
2024/04/12 12:09:56;;;;;;;6.38;1.55;;;22.90;51.40;;;;;;5465854;26;20003;-76
2024/04/12 12:12:24;;;;;;;3.63;1.42;;;23.00;51.40;;;;;;5451407;26;19998;-77
2024/04/12 12:14:51;;;;;;;2.25;1.50;;;22.90;49.60;;;;;;5452848;26;19987;-75
2024/04/12 12:17:18;;;;;;;8.18;1.75;;;22.80;51.10;;;;;;5451921;26;19998;-77
2024/04/12 12:19:53;;;;;;;1.20;1.10;;;22.90;50.50;;;;;;5452134;26;20447;-75
2024/04/12 12:22:21;;;;;;;1.25;1.15;;;23.00;49.30;;;;;;5468733;26;19995;-76
2024/04/12 12:24:47;;;;;;;2.65;1.27;;;22.90;48.80;;;;;;5487689;26;19998;-76
2024/04/12 12:27:13;;;;;;;1.90;1.38;;;22.90;49.40;;;;;;5490599;26;20006;-77
2024/04/12 12:29:39;;;;;;;1.30;1.20;;;23.00;50.10;;;;;;5489911;26;20001;-77
2024/04/12 12:32:06;;;;;;;1.45;1.13;;;22.90;49.20;;;;;;5487130;26;19997;-76
2024/04/12 12:34:33;;;;;;;12.57;1.85;;;22.80;49.20;;;;;;5489407;26;19990;-77
2024/04/12 12:37:04;;;;;;;1.98;1.05;;;22.90;50.50;;;;;;5488439;26;19990;-77
2024/04/12 12:39:33;;;;;;;3.42;1.08;;;22.80;48.00;;;;;;5490237;26;19994;-77
2024/04/12 12:42:01;;;;;;;1.30;1.20;;;23.00;49.90;;;;;;5487665;26;20117;-77
2024/04/12 12:44:28;;;;;;;3.25;1.20;;;23.10;48.50;;;;;;5489439;26;19991;-76
2024/04/12 12:46:55;;;;;;;4.72;1.70;;;22.90;48.60;;;;;;5481012;26;19998;-77
2024/04/12 12:49:25;;;;;;;6.45;1.15;;;22.80;48.60;;;;;;5468262;26;20003;-78
2024/04/12 12:51:53;;;;;;;2.10;1.45;;;22.80;49.50;;;;;;5451784;26;19990;-77
2024/04/12 12:54:19;;;;;;;3.00;1.52;;;22.90;49.40;;;;;;5451050;26;20060;-77
2024/04/12 12:56:48;;;;;;;1.83;1.20;;;23.00;48.90;;;;;;5453182;26;20007;-77
2024/04/12 12:59:13;;;;;;;1.40;1.30;;;23.20;48.90;;;;;;5451027;26;20031;-76
2024/04/12 13:01:41;;;;;;;1.65;1.27;;;23.40;48.60;;;;;;5452553;26;20497;-77
2024/04/12 13:04:08;;;;;;;4.63;1.40;;;23.20;49.20;;;;;;5451633;26;20425;-76
2024/04/12 13:06:37;;;;;;;2.65;1.90;;;23.40;48.30;;;;;;5452719;26;19995;-76
2024/04/12 13:09:04;;;;;;;2.67;1.60;;;23.40;48.10;;;;;;5450528;26;20339;-77
2024/04/12 13:11:31;;;;;;;1.67;1.52;;;23.20;47.30;;;;;;5452328;26;20009;-75
2024/04/12 13:13:59;;;;;;;2.40;1.08;;;23.30;47.80;;;;;;5451970;26;20007;-75
2024/04/12 13:16:25;;;;;;;4.18;1.52;;;23.60;48.50;;;;;;5452087;26;19994;-76
2024/04/12 13:18:56;;;;;;;3.17;1.10;;;23.70;47.60;;;;;;5452424;26;20397;-75
2024/04/12 13:21:25;;;;;;;5.63;1.73;;;23.70;47.00;;;;;;5450716;26;20085;-76
2024/04/12 13:23:51;;;;;;;4.50;1.50;;;23.60;47.10;;;;;;5450022;26;20006;-77
2024/04/12 13:26:31;;;;;;;1.70;1.27;;;23.30;46.80;;;;;;5466032;26;20088;-76
2024/04/12 13:28:57;;;;;;;2.30;1.90;;;23.30;47.90;;;;;;5480475;26;20368;-75
2024/04/12 13:31:25;;;;;;;1.92;1.17;;;23.30;46.90;;;;;;5450442;26;20003;-75
2024/04/12 13:33:54;;;;;;;5.25;1.20;;;23.30;45.70;;;;;;5450139;26;20071;-76
2024/04/12 13:36:20;;;;;;;3.15;1.50;;;23.30;46.70;;;;;;5464862;26;19994;-76
2024/04/12 13:38:49;;;;;;;4.63;1.35;;;23.20;47.10;;;;;;5455277;26;20009;-78
2024/04/12 13:41:16;;;;;;;1.02;0.90;;;23.00;46.60;;;;;;5452588;26;19994;-76
2024/04/12 13:43:46;;;;;;;1.75;1.00;;;22.80;45.90;;;;;;5466305;26;19995;-75
2024/04/12 13:51:50;;;;;;;8.32;1.27;;;23.20;48.60;;;;;;5451526;26;20083;-75
2024/04/12 13:54:24;;;;;;;4.93;1.20;;;23.40;48.60;;;;;;5450982;26;20013;-77
2024/04/12 13:56:56;;;;;;;2.17;1.17;;;23.60;47.90;;;;;;5452726;26;20009;-78
2024/04/12 13:59:22;;;;;;;2.65;1.42;;;23.70;48.90;;;;;;5451931;26;19995;-77
2024/04/12 14:01:49;;;;;;;3.38;1.10;;;23.80;46.30;;;;;;5451516;26;19999;-77
2024/04/12 14:04:18;;;;;;;4.40;1.42;;;23.80;46.10;;;;;;5448979;26;19999;-78
2024/04/12 14:06:46;;;;;;;3.60;1.17;;;23.70;47.00;;;;;;5449984;26;20007;-75
2024/04/12 14:09:13;;;;;;;1.65;1.30;;;23.80;46.30;;;;;;5451800;26;20002;-76
2024/04/12 14:11:42;;;;;;;3.75;1.10;;;23.80;46.10;;;;;;5452061;26;19999;-77
2024/04/12 14:14:08;;;;;;;4.70;1.50;;;23.70;46.40;;;;;;5452474;26;20021;-77
2024/04/12 14:16:41;;;;;;;3.92;1.20;;;23.80;45.80;;;;;;5452770;26;20068;-77
2024/04/12 14:19:20;;;;;;;4.03;1.55;;;23.70;46.00;;;;;;5453220;26;19994;-77
2024/04/12 14:21:47;;;;;;;1.58;1.00;;;23.60;46.20;;;;;;5449818;26;19999;-76
2024/04/12 14:27:00;;;;;;;1.40;0.98;;;23.50;45.00;;;;;;5451923;26;20005;-76
2024/04/12 14:29:30;;;;;;;3.05;0.95;;;23.60;46.10;;;;;;5450307;26;19995;-76